createdAt,value
2023-03-03T00:02:12.074Z,25.30
2023-03-03T00:04:41.102Z,26.08
2023-03-03T00:07:08.985Z,27.52
2023-03-03T00:09:36.836Z,28.17
2023-03-03T00:12:19.148Z,26.25
2023-03-03T00:14:47.108Z,27.83
2023-03-03T00:17:23.247Z,28.55
2023-03-03T00:19:51.946Z,27.65
2023-03-03T00:22:31.936Z,25.58
2023-03-03T00:25:21.461Z,27.58
2023-03-03T00:27:51.698Z,26.27
2023-03-03T00:30:26.569Z,29.65
2023-03-03T00:32:56.778Z,28.05
2023-03-03T00:35:36.620Z,27.40
2023-03-03T00:38:15.872Z,26.10
2023-03-03T00:40:43.906Z,27.95
2023-03-03T00:43:30.170Z,29.48
2023-03-03T00:45:59.575Z,25.67
2023-03-03T00:48:42.347Z,27.20
2023-03-03T00:51:30.145Z,27.33
2023-03-03T00:54:00.106Z,27.23
2023-03-03T00:56:28.948Z,26.10
2023-03-03T00:58:57.847Z,24.98
2023-03-03T01:01:28.781Z,26.02
2023-03-03T01:03:57.243Z,26.88
2023-03-03T01:06:26.349Z,25.05
2023-03-03T01:08:56.169Z,28.05
2023-03-03T01:11:29.695Z,30.60
2023-03-03T01:14:28.797Z,25.70
2023-03-03T01:16:56.813Z,30.05
2023-03-03T01:19:24.824Z,26.35
2023-03-03T01:21:53.091Z,31.05
2023-03-03T01:24:22.089Z,24.77
2023-03-03T01:26:50.090Z,25.25
2023-03-03T01:29:18.039Z,28.95
2023-03-03T01:31:45.947Z,27.55
2023-03-03T01:34:13.855Z,23.63
2023-03-03T01:36:41.768Z,28.05
2023-03-03T01:39:11.357Z,24.30
2023-03-03T01:41:39.653Z,26.60
2023-03-03T01:44:12.725Z,26.23
2023-03-03T01:47:13.011Z,27.58
2023-03-03T01:50:05.280Z,27.42
2023-03-03T01:52:43.660Z,28.38
2023-03-03T01:55:22.780Z,28.98
2023-03-03T01:57:58.150Z,27.77
2023-03-03T02:00:28.510Z,26.17
2023-03-03T02:02:57.002Z,27.70
2023-03-03T02:05:25.109Z,27.67
2023-03-03T02:07:53.545Z,29.73
2023-03-03T02:10:23.633Z,30.23
2023-03-03T02:12:54.306Z,30.52
2023-03-03T02:15:37.129Z,28.08
2023-03-03T02:18:16.854Z,27.00
2023-03-03T02:21:00.345Z,28.38
2023-03-03T02:23:51.713Z,25.05
2023-03-03T02:26:24.511Z,23.63
2023-03-03T02:28:58.132Z,30.00
2023-03-03T02:31:32.422Z,25.58
2023-03-03T02:34:04.801Z,25.02
2023-03-03T02:36:36.167Z,24.17
2023-03-03T02:39:14.313Z,27.20
2023-03-03T02:41:53.017Z,28.02
2023-03-03T02:44:26.144Z,27.58
2023-03-03T02:46:56.089Z,30.48
2023-03-03T02:49:26.816Z,29.65
2023-03-03T02:51:55.843Z,24.58
2023-03-03T02:54:27.655Z,29.40
2023-03-03T02:56:55.670Z,26.83
2023-03-03T02:59:23.676Z,27.30
2023-03-03T03:01:54.130Z,29.50
2023-03-03T03:04:27.287Z,28.63
2023-03-03T03:06:57.118Z,27.80
2023-03-03T03:09:30.987Z,27.38
2023-03-03T03:12:03.617Z,25.73
2023-03-03T03:14:34.283Z,26.75
2023-03-03T03:17:02.650Z,28.13
2023-03-03T03:19:30.704Z,25.40
2023-03-03T03:24:31.071Z,27.40
2023-03-03T03:27:04.044Z,24.92
2023-03-03T03:29:32.047Z,27.25
2023-03-03T03:31:59.995Z,31.55
2023-03-03T03:34:28.144Z,32.03
2023-03-03T03:36:57.208Z,26.85
2023-03-03T03:39:27.380Z,29.35
2023-03-03T03:41:55.565Z,27.60
2023-03-03T03:44:25.033Z,27.02
2023-03-03T03:46:53.519Z,32.33
2023-03-03T03:49:21.946Z,26.70
2023-03-03T03:51:52.018Z,27.38
2023-03-03T03:54:22.942Z,26.23
2023-03-03T03:56:51.643Z,27.58
2023-03-03T03:59:19.539Z,27.90
2023-03-03T04:01:49.221Z,27.35
2023-03-03T04:04:18.487Z,28.15
2023-03-03T04:06:46.424Z,27.40
2023-03-03T04:09:15.455Z,31.05
2023-03-03T04:11:43.945Z,28.00
2023-03-03T04:14:12.315Z,28.73
2023-03-03T04:16:40.312Z,28.90
2023-03-03T04:19:08.336Z,26.67
2023-03-03T04:21:38.926Z,31.00
2023-03-03T04:24:08.736Z,29.95
2023-03-03T04:26:39.548Z,31.58
2023-03-03T04:29:07.851Z,29.98
2023-03-03T04:31:36.500Z,31.25
2023-03-03T04:34:09.832Z,30.35
2023-03-03T04:36:38.233Z,33.42
2023-03-03T04:39:06.387Z,33.20
2023-03-03T04:41:34.521Z,32.47
2023-03-03T04:44:02.783Z,35.05
2023-03-03T04:46:30.857Z,33.45
2023-03-03T04:48:59.710Z,36.25
2023-03-03T04:51:28.527Z,32.75
2023-03-03T04:53:56.672Z,31.80
2023-03-03T04:56:24.920Z,38.22
2023-03-03T04:58:53.312Z,35.70
2023-03-03T05:01:21.522Z,35.75
2023-03-03T05:03:49.796Z,32.85
2023-03-03T05:06:19.919Z,34.28
2023-03-03T05:08:47.851Z,32.65
2023-03-03T05:11:15.716Z,32.78
2023-03-03T05:13:43.853Z,31.23
2023-03-03T05:16:11.731Z,33.78
2023-03-03T05:18:39.683Z,33.80
2023-03-03T05:21:07.705Z,36.20
2023-03-03T05:23:35.712Z,39.53
2023-03-03T05:26:03.596Z,35.45
2023-03-03T05:28:31.815Z,35.58
2023-03-03T05:30:59.880Z,41.35
2023-03-03T05:33:28.001Z,33.55
2023-03-03T05:35:57.527Z,37.35
2023-03-03T05:38:26.831Z,37.47
2023-03-03T05:40:57.440Z,36.65
2023-03-03T05:43:25.547Z,41.70
2023-03-03T05:45:58.336Z,38.15
2023-03-03T05:48:26.481Z,39.17
2023-03-03T05:50:54.412Z,38.92
2023-03-03T05:53:22.334Z,43.25
2023-03-03T05:55:50.552Z,43.00
2023-03-03T05:58:18.496Z,39.42
2023-03-03T06:00:46.789Z,39.72
2023-03-03T06:03:14.913Z,45.35
2023-03-03T06:05:42.894Z,46.00
2023-03-03T06:08:10.933Z,45.90
2023-03-03T06:10:38.997Z,47.05
2023-03-03T06:13:10.811Z,50.83
2023-03-03T06:15:39.184Z,45.03
2023-03-03T06:18:13.196Z,45.67
2023-03-03T06:20:41.335Z,51.97
2023-03-03T06:23:09.192Z,50.88
2023-03-03T06:25:40.392Z,47.55
2023-03-03T06:28:08.422Z,47.92
2023-03-03T06:30:36.369Z,50.88
2023-03-03T06:33:04.495Z,53.67
2023-03-03T06:35:32.531Z,48.40
2023-03-03T06:38:00.504Z,51.42
2023-03-03T06:40:28.389Z,53.88
2023-03-03T06:42:56.571Z,50.75
2023-03-03T06:45:24.530Z,52.85
2023-03-03T06:47:52.483Z,47.75
2023-03-03T06:50:22.093Z,51.28
2023-03-03T06:52:50.057Z,46.90
2023-03-03T06:55:23.574Z,49.95
2023-03-03T06:57:51.628Z,47.45
2023-03-03T07:00:24.867Z,46.45
2023-03-03T07:03:01.279Z,46.22
2023-03-03T07:05:30.371Z,48.78
2023-03-03T07:07:58.784Z,57.08
2023-03-03T07:10:29.239Z,51.30
2023-03-03T07:13:05.017Z,53.40
2023-03-03T07:15:37.248Z,50.83
2023-03-03T07:18:33.779Z,50.20
2023-03-03T07:21:17.477Z,44.08
2023-03-03T07:23:47.341Z,46.03
2023-03-03T07:26:26.496Z,48.28
2023-03-03T07:29:01.258Z,48.95
2023-03-03T07:31:43.497Z,47.38
2023-03-03T07:34:35.800Z,47.63
2023-03-03T07:37:10.792Z,44.25
2023-03-03T07:39:41.380Z,43.10
2023-03-03T07:42:43.905Z,43.17
2023-03-03T07:45:36.472Z,39.95
2023-03-03T07:48:27.797Z,41.90
2023-03-03T07:50:55.730Z,40.33
2023-03-03T07:53:30.100Z,40.85
2023-03-03T07:55:58.015Z,44.58
2023-03-03T07:58:44.834Z,44.45
2023-03-03T08:01:31.497Z,50.05
2023-03-03T08:03:59.684Z,46.55
2023-03-03T08:06:36.652Z,43.70
2023-03-03T08:09:13.658Z,41.90
2023-03-03T08:11:54.441Z,46.88
2023-03-03T08:14:42.097Z,40.72
2023-03-03T08:17:21.739Z,38.08
2023-03-03T08:19:53.840Z,44.60
2023-03-03T08:22:37.597Z,41.45
2023-03-03T08:25:06.279Z,37.42
2023-03-03T08:27:34.458Z,41.30
2023-03-03T08:30:02.366Z,42.67
2023-03-03T08:32:30.376Z,41.78
2023-03-03T08:34:58.350Z,40.95
2023-03-03T08:37:26.278Z,43.50
2023-03-03T08:39:54.149Z,42.83
2023-03-03T08:42:22.056Z,38.72
2023-03-03T08:44:49.928Z,43.22
2023-03-03T08:47:17.812Z,40.80
2023-03-03T08:49:45.798Z,37.17
2023-03-03T08:52:13.745Z,40.20
2023-03-03T08:54:41.715Z,37.08
2023-03-03T08:57:09.850Z,38.42
2023-03-03T08:59:40.105Z,37.85
2023-03-03T09:02:08.424Z,36.65
2023-03-03T09:04:36.468Z,35.78
2023-03-03T09:07:04.688Z,37.03
2023-03-03T09:09:35.821Z,35.88
2023-03-03T09:12:28.418Z,35.85
2023-03-03T09:14:59.633Z,34.10
2023-03-03T09:20:28.860Z,33.92
2023-03-03T09:22:56.945Z,35.38
2023-03-03T09:25:30.244Z,32.60
2023-03-03T09:27:58.317Z,33.50
2023-03-03T09:30:32.423Z,30.83
2023-03-03T09:33:03.105Z,32.20
2023-03-03T09:35:42.254Z,29.70
2023-03-03T09:38:31.298Z,32.25
2023-03-03T09:41:17.571Z,30.38
2023-03-03T09:44:09.789Z,31.67
2023-03-03T09:46:51.754Z,29.77
2023-03-03T09:49:52.369Z,30.48
2023-03-03T09:52:39.930Z,36.25
2023-03-03T09:55:20.913Z,31.50
2023-03-03T09:58:10.401Z,30.25
2023-03-03T10:00:47.250Z,28.30
2023-03-03T10:03:49.995Z,30.48
2023-03-03T10:06:35.806Z,30.77
2023-03-03T10:09:38.932Z,28.55
2023-03-03T10:12:23.797Z,26.70
2023-03-03T10:15:26.687Z,27.25
2023-03-03T10:18:21.006Z,24.17
2023-03-03T10:21:17.979Z,25.52
2023-03-03T10:23:58.473Z,28.05
2023-03-03T10:27:15.472Z,30.27
2023-03-03T10:30:15.103Z,26.05
2023-03-03T10:33:01.274Z,26.67
2023-03-03T10:36:08.022Z,24.77
2023-03-03T10:39:00.379Z,26.17
2023-03-03T10:41:41.197Z,25.17
2023-03-03T10:44:42.792Z,23.33
2023-03-03T10:47:16.304Z,22.75
2023-03-03T10:50:17.755Z,23.63
2023-03-03T10:53:18.226Z,24.02
2023-03-03T10:56:12.158Z,24.17
2023-03-03T10:59:18.765Z,24.48
2023-03-03T11:01:54.274Z,23.10
2023-03-03T11:04:36.143Z,23.60
2023-03-03T11:07:33.041Z,23.33
2023-03-03T11:10:33.081Z,24.25
2023-03-03T11:13:32.654Z,23.83
2023-03-03T11:16:31.108Z,24.05
2023-03-03T11:19:23.623Z,25.40
2023-03-03T11:22:19.604Z,24.73
2023-03-03T11:24:56.693Z,27.20
2023-03-03T11:27:45.763Z,24.65
2023-03-03T11:30:43.766Z,24.85
2023-03-03T11:33:16.885Z,22.92
2023-03-03T11:35:54.884Z,22.17
2023-03-03T11:38:22.814Z,23.17
2023-03-03T11:41:02.090Z,23.17
2023-03-03T11:43:40.806Z,23.05
2023-03-03T11:46:14.131Z,23.00
2023-03-03T11:49:06.133Z,23.63
2023-03-03T11:51:48.668Z,23.00
2023-03-03T11:54:23.573Z,22.08
2023-03-03T11:56:55.821Z,23.13
2023-03-03T11:59:59.263Z,23.35
2023-03-03T12:02:44.884Z,25.67
2023-03-03T12:05:36.552Z,21.90
2023-03-03T12:08:22.552Z,23.15
2023-03-03T12:11:07.311Z,22.25
2023-03-03T12:14:02.115Z,23.58
2023-03-03T12:16:48.627Z,21.88
2023-03-03T12:19:25.351Z,22.67
2023-03-03T12:21:58.776Z,23.42
2023-03-03T12:24:45.497Z,23.20
2023-03-03T12:27:22.429Z,20.52
2023-03-03T12:30:19.459Z,22.30
2023-03-03T12:33:29.172Z,20.23
2023-03-03T12:36:02.614Z,21.63
2023-03-03T12:38:45.508Z,24.42
2023-03-03T12:41:42.481Z,20.15
2023-03-03T12:44:34.973Z,21.50
2023-03-03T12:47:23.158Z,21.10
2023-03-03T12:50:26.480Z,22.38
2023-03-03T12:53:02.435Z,23.27
2023-03-03T12:55:54.524Z,21.55
2023-03-03T12:58:31.371Z,21.38
2023-03-03T13:01:24.146Z,24.70
2023-03-03T13:04:22.511Z,22.80
2023-03-03T13:07:05.496Z,22.20
2023-03-03T13:09:43.375Z,21.75
2023-03-03T13:12:16.012Z,24.20
2023-03-03T13:15:04.134Z,23.08
2023-03-03T13:17:35.311Z,21.15
2023-03-03T13:20:13.054Z,21.90
2023-03-03T13:23:11.647Z,24.35
2023-03-03T13:25:55.285Z,22.30
2023-03-03T13:28:23.224Z,21.88
2023-03-03T13:30:56.784Z,21.20
2023-03-03T13:33:32.797Z,20.05
2023-03-03T13:36:22.004Z,22.95
2023-03-03T13:38:55.575Z,17.55
2023-03-03T13:41:50.612Z,19.33
2023-03-03T13:44:26.974Z,20.80
2023-03-03T13:47:08.059Z,19.15
2023-03-03T13:49:48.361Z,19.63
2023-03-03T13:52:30.059Z,20.70
2023-03-03T13:55:25.166Z,18.73
2023-03-03T13:57:55.924Z,20.30
2023-03-03T14:00:29.729Z,18.75
2023-03-03T14:03:33.025Z,19.67
2023-03-03T14:06:03.996Z,20.77
2023-03-03T14:09:01.696Z,19.10
2023-03-03T14:11:58.492Z,19.23
2023-03-03T14:14:45.234Z,19.27
2023-03-03T14:17:29.468Z,20.95
2023-03-03T14:20:28.425Z,19.35
2023-03-03T14:23:10.355Z,20.05
2023-03-03T14:25:58.487Z,25.65
2023-03-03T14:28:38.426Z,17.38
2023-03-03T14:31:26.271Z,17.20
2023-03-03T14:34:24.943Z,16.13
2023-03-03T14:36:59.051Z,17.20
2023-03-03T14:39:36.431Z,17.65
2023-03-03T14:42:16.450Z,18.92
2023-03-03T14:44:47.279Z,19.67
2023-03-03T14:47:23.730Z,16.67
2023-03-03T14:49:53.354Z,17.38
2023-03-03T14:52:24.873Z,15.05
2023-03-03T14:54:57.211Z,16.80
2023-03-03T14:57:57.693Z,17.23
2023-03-03T15:00:25.636Z,16.00
2023-03-03T15:02:53.464Z,17.05
2023-03-03T15:05:32.861Z,16.08
2023-03-03T15:08:06.895Z,17.80
2023-03-03T15:10:40.449Z,16.38
2023-03-03T15:13:30.313Z,17.63
2023-03-03T15:16:01.094Z,16.33
2023-03-03T15:18:33.641Z,17.48
2023-03-03T15:21:18.333Z,16.25
2023-03-03T15:23:58.714Z,13.90
2023-03-03T15:27:00.590Z,16.83
2023-03-03T15:29:39.441Z,17.48
2023-03-03T15:32:23.029Z,14.98
2023-03-03T15:35:14.838Z,17.55
2023-03-03T15:37:48.509Z,19.75
2023-03-03T15:40:41.362Z,16.48
2023-03-03T15:43:40.961Z,20.02
2023-03-03T15:46:44.016Z,17.85
2023-03-03T15:49:28.109Z,21.30
2023-03-03T15:52:07.452Z,16.80
2023-03-03T15:55:11.218Z,49.03
2023-03-03T15:57:45.022Z,15.57
2023-03-03T16:00:25.048Z,16.08
2023-03-03T16:03:06.317Z,15.48
2023-03-03T16:05:39.634Z,19.67
2023-03-03T16:08:43.072Z,16.92
2023-03-03T16:11:25.734Z,15.13
2023-03-03T16:14:09.008Z,14.57
2023-03-03T16:16:44.950Z,13.85
2023-03-03T16:19:33.687Z,15.30
2023-03-03T16:22:24.268Z,17.95
2023-03-03T16:25:07.336Z,13.35
2023-03-03T16:27:51.668Z,12.13
2023-03-03T16:30:35.677Z,10.43
2023-03-03T16:33:21.847Z,11.63
2023-03-03T16:35:54.289Z,7.20
2023-03-03T16:38:48.353Z,8.13
2023-03-03T16:41:56.769Z,7.93
2023-03-03T16:44:45.103Z,9.38
2023-03-03T16:47:34.272Z,8.95
2023-03-03T16:50:28.579Z,7.15
2023-03-03T16:53:31.823Z,7.57
2023-03-03T16:56:15.502Z,9.98
2023-03-03T16:59:20.193Z,18.80
2023-03-03T17:01:53.969Z,22.80
2023-03-03T17:04:40.106Z,10.52
2023-03-03T17:07:24.190Z,9.57
2023-03-03T17:10:18.504Z,12.60
2023-03-03T17:12:49.319Z,20.35
2023-03-03T17:15:42.180Z,24.13
2023-03-03T17:18:50.543Z,11.40
2023-03-03T17:21:30.864Z,7.57
2023-03-03T17:24:21.353Z,9.27
2023-03-03T17:27:05.920Z,7.75
2023-03-03T17:30:08.541Z,10.70
2023-03-03T17:33:21.877Z,17.02
2023-03-03T17:36:13.757Z,11.68
2023-03-03T17:39:00.462Z,14.13
2023-03-03T17:41:53.062Z,14.15
2023-03-03T17:44:23.884Z,12.70
2023-03-03T17:47:09.684Z,13.90
2023-03-03T17:49:54.558Z,11.07
2023-03-03T17:52:51.309Z,13.38
2023-03-03T17:55:38.305Z,16.40
2023-03-03T17:58:25.279Z,13.52
2023-03-03T18:01:05.026Z,14.55
2023-03-03T18:03:41.816Z,28.40
2023-03-03T18:06:25.204Z,184.55
2023-03-03T18:09:13.834Z,199.10
2023-03-03T18:11:51.456Z,150.75
2023-03-03T18:14:34.072Z,31.48
2023-03-03T18:17:01.933Z,23.00
2023-03-03T18:20:14.292Z,22.65
2023-03-03T18:22:52.163Z,16.27
2023-03-03T18:25:23.311Z,17.02
2023-03-03T18:28:16.704Z,15.43
2023-03-03T18:30:59.279Z,11.93
2023-03-03T18:34:00.320Z,19.45
2023-03-03T18:36:28.318Z,18.95
2023-03-03T18:38:57.729Z,20.05
2023-03-03T18:41:31.568Z,17.42
2023-03-03T18:44:03.232Z,25.02
2023-03-03T18:46:39.301Z,20.00
2023-03-03T18:49:08.715Z,15.80
2023-03-03T18:51:36.769Z,16.50
2023-03-03T18:54:13.608Z,17.60
2023-03-03T18:57:04.803Z,18.08
2023-03-03T18:59:32.711Z,18.85
2023-03-03T19:02:18.849Z,19.02
2023-03-03T19:05:29.691Z,14.00
2023-03-03T19:08:27.491Z,14.55
2023-03-03T19:10:59.930Z,15.75
2023-03-03T19:13:42.398Z,15.05
2023-03-03T19:16:31.630Z,24.38
2023-03-03T19:19:07.388Z,14.68
2023-03-03T19:21:37.513Z,13.85
2023-03-03T19:24:07.079Z,11.43
2023-03-03T19:26:54.588Z,14.95
2023-03-03T19:29:22.504Z,15.90
2023-03-03T19:32:17.688Z,14.15
2023-03-03T19:35:07.534Z,14.35
2023-03-03T19:37:52.986Z,13.65
2023-03-03T19:40:43.936Z,14.00
2023-03-03T19:43:23.748Z,15.35
2023-03-03T19:46:00.290Z,17.85
2023-03-03T19:48:37.388Z,19.27
2023-03-03T19:51:08.021Z,21.15
2023-03-03T19:53:44.559Z,20.52
2023-03-03T19:56:39.861Z,17.73
2023-03-03T19:59:39.361Z,23.40
2023-03-03T20:02:39.162Z,27.02
2023-03-03T20:05:34.345Z,20.23
2023-03-03T20:08:27.047Z,20.58
2023-03-03T20:11:03.647Z,21.75
2023-03-03T20:14:09.690Z,20.52
2023-03-03T20:16:43.119Z,25.13
2023-03-03T20:19:19.875Z,23.05
2023-03-03T20:22:13.325Z,25.50
2023-03-03T20:24:47.450Z,29.02
2023-03-03T20:27:21.705Z,26.60
2023-03-03T20:30:09.791Z,36.42
2023-03-03T20:33:02.644Z,34.42
2023-03-03T20:35:49.322Z,33.63
2023-03-03T20:38:34.061Z,30.13
2023-03-03T20:41:09.687Z,24.55
2023-03-03T20:44:13.644Z,24.27
2023-03-03T20:46:53.512Z,20.52
2023-03-03T20:49:34.192Z,21.95
2023-03-03T20:52:14.387Z,25.20
2023-03-03T20:54:53.620Z,24.67
2023-03-03T20:58:08.983Z,27.45
2023-03-03T21:00:48.727Z,23.92
2023-03-03T21:03:22.496Z,21.85
2023-03-03T21:06:03.938Z,22.48
2023-03-03T21:11:24.923Z,23.02
2023-03-03T21:13:55.363Z,20.60
2023-03-03T21:16:23.910Z,22.50
2023-03-03T21:18:59.523Z,20.52
2023-03-03T21:21:29.149Z,22.75
2023-03-03T21:23:57.692Z,23.65
2023-03-03T21:26:53.642Z,26.70
2023-03-03T21:29:24.784Z,21.08
2023-03-03T21:32:00.909Z,22.50
2023-03-03T21:34:37.948Z,19.63
2023-03-03T21:37:08.670Z,23.40
2023-03-03T21:39:37.819Z,24.80
2023-03-03T21:42:29.991Z,20.63
2023-03-03T21:44:57.955Z,21.40
2023-03-03T21:47:30.233Z,19.00
2023-03-03T21:49:58.148Z,19.08
2023-03-03T21:52:25.980Z,21.23
2023-03-03T21:54:54.072Z,18.23
2023-03-03T21:57:22.611Z,22.08
2023-03-03T21:59:50.539Z,17.70
2023-03-03T22:02:18.683Z,18.20
2023-03-03T22:04:46.663Z,16.23
2023-03-03T22:07:14.650Z,18.60
2023-03-03T22:09:42.596Z,17.20
2023-03-03T22:12:10.729Z,18.08
2023-03-03T22:14:38.710Z,20.35
2023-03-03T22:17:06.838Z,18.33
2023-03-03T22:19:35.276Z,20.30
2023-03-03T22:22:03.131Z,17.08
2023-03-03T22:24:31.223Z,20.08
2023-03-03T22:26:59.161Z,20.15
2023-03-03T22:29:27.533Z,18.83
2023-03-03T22:31:55.626Z,21.38
2023-03-03T22:34:26.645Z,19.10
2023-03-03T22:36:54.639Z,17.90
2023-03-03T22:39:23.912Z,19.95
2023-03-03T22:41:54.046Z,17.42
2023-03-03T22:44:21.956Z,20.80
2023-03-03T22:46:52.901Z,20.00
2023-03-03T22:49:20.882Z,22.67
2023-03-03T22:51:48.764Z,20.25
2023-03-03T22:54:16.636Z,20.20
2023-03-03T22:56:44.544Z,20.52
2023-03-03T22:59:12.467Z,19.73
2023-03-03T23:01:40.366Z,22.73
2023-03-03T23:04:08.384Z,20.38
2023-03-03T23:06:36.330Z,21.45
2023-03-03T23:09:04.443Z,19.52
2023-03-03T23:11:32.292Z,17.88
2023-03-03T23:14:00.249Z,18.73
2023-03-03T23:16:28.339Z,20.17
2023-03-03T23:18:56.247Z,22.85
2023-03-03T23:21:24.126Z,20.15
2023-03-03T23:23:52.045Z,20.70
2023-03-03T23:26:19.982Z,20.45
2023-03-03T23:28:47.937Z,18.88
2023-03-03T23:31:15.821Z,19.85
2023-03-03T23:33:43.842Z,21.65
2023-03-03T23:36:12.021Z,17.30
2023-03-03T23:38:42.712Z,19.77
2023-03-03T23:41:11.138Z,17.30
2023-03-03T23:43:39.027Z,17.85
2023-03-03T23:46:06.899Z,17.83
2023-03-03T23:48:34.953Z,21.58
2023-03-03T23:51:04.760Z,19.80
2023-03-03T23:53:32.627Z,19.27
2023-03-03T23:56:00.543Z,18.02
2023-03-03T23:58:28.600Z,17.02
